Metar z pełnej godziny Komunikat METAR ze strony awiacja.imgw.pl Metar G00 EPGD METAR EPGD 200200Z VRB02KT CAVOK 15/14 Q1014 =